createdAt,value
2022-11-30T00:00:16.034Z,88.07
2022-11-30T00:01:20.677Z,88.42
2022-11-30T00:02:22.378Z,88.22
2022-11-30T00:03:25.495Z,88.14
2022-11-30T00:04:27.070Z,87.97
2022-11-30T00:05:30.934Z,88.11
2022-11-30T00:06:32.422Z,88.10
2022-11-30T00:07:35.553Z,88.33
2022-11-30T00:08:37.216Z,88.29
2022-11-30T00:09:39.738Z,88.13
2022-11-30T00:10:41.748Z,88.37
2022-11-30T00:11:44.202Z,88.20
2022-11-30T00:12:45.788Z,88.35
2022-11-30T00:13:49.000Z,88.32
2022-11-30T00:14:50.960Z,88.39
2022-11-30T00:15:53.869Z,88.24
2022-11-30T00:16:55.456Z,88.33
2022-11-30T00:17:58.468Z,88.46
2022-11-30T00:19:00.005Z,88.35
2022-11-30T00:20:02.491Z,88.51
2022-11-30T00:21:08.580Z,88.55
2022-11-30T00:22:11.198Z,88.36
2022-11-30T00:23:12.725Z,88.39
2022-11-30T00:24:15.313Z,88.17
2022-11-30T00:25:16.984Z,88.36
2022-11-30T00:26:22.693Z,88.24
2022-11-30T00:27:24.205Z,88.24
2022-11-30T00:28:26.768Z,88.32
2022-11-30T00:29:28.356Z,88.26
2022-11-30T00:30:31.590Z,88.45
2022-11-30T00:31:33.158Z,88.22
2022-11-30T00:32:35.678Z,88.38
2022-11-30T00:33:38.545Z,88.13
2022-11-30T00:34:41.062Z,88.31
2022-11-30T00:35:44.255Z,88.29
2022-11-30T00:36:48.431Z,88.37
2022-11-30T00:37:49.917Z,88.62
2022-11-30T00:38:52.911Z,88.30
2022-11-30T00:39:54.421Z,88.55
2022-11-30T00:40:56.892Z,88.58
2022-11-30T00:41:58.368Z,88.60
2022-11-30T00:43:00.843Z,88.35
2022-11-30T00:44:02.670Z,88.62
2022-11-30T00:45:05.854Z,88.78
2022-11-30T00:46:09.281Z,88.48
2022-11-30T00:47:11.880Z,88.61
2022-11-30T00:48:13.642Z,88.80
2022-11-30T00:49:16.356Z,88.64
2022-11-30T00:50:17.856Z,88.90
2022-11-30T00:51:20.402Z,88.64
2022-11-30T00:52:23.282Z,88.74
2022-11-30T00:53:25.781Z,88.97
2022-11-30T00:54:27.523Z,88.81
2022-11-30T00:55:31.752Z,88.66
2022-11-30T00:56:33.273Z,88.82
2022-11-30T00:57:35.745Z,88.75
2022-11-30T00:58:37.361Z,88.72
2022-11-30T00:59:39.828Z,88.67
2022-11-30T01:00:41.461Z,88.74
2022-11-30T01:01:43.981Z,88.65
2022-11-30T01:02:45.837Z,88.62
2022-11-30T01:03:48.541Z,88.62
2022-11-30T01:04:50.037Z,88.64
2022-11-30T01:05:53.265Z,88.51
2022-11-30T01:06:54.899Z,88.59
2022-11-30T01:08:00.566Z,88.76
2022-11-30T01:09:03.002Z,88.65
2022-11-30T01:10:06.543Z,88.61
2022-11-30T01:11:12.222Z,88.68
2022-11-30T01:12:14.813Z,88.65
2022-11-30T01:13:16.414Z,88.73
2022-11-30T01:14:18.909Z,88.73
2022-11-30T01:15:20.503Z,88.54
2022-11-30T01:16:26.213Z,88.59
2022-11-30T01:17:27.996Z,88.47
2022-11-30T01:18:30.489Z,88.71
2022-11-30T01:19:32.049Z,88.67
2022-11-30T01:20:34.859Z,88.60
2022-11-30T01:21:36.368Z,88.64
2022-11-30T01:22:39.074Z,88.76
2022-11-30T01:23:42.408Z,88.49
2022-11-30T01:24:45.137Z,88.41
2022-11-30T01:25:53.867Z,88.85
2022-11-30T01:26:56.408Z,88.85
2022-11-30T01:27:57.910Z,88.89
2022-11-30T01:29:00.434Z,88.80
2022-11-30T01:30:01.983Z,88.72
2022-11-30T01:31:07.072Z,88.69
2022-11-30T01:32:08.652Z,89.00
2022-11-30T01:33:11.150Z,88.90
2022-11-30T01:34:12.709Z,88.96
2022-11-30T01:35:15.410Z,89.09
2022-11-30T01:36:19.001Z,88.88
2022-11-30T01:37:21.483Z,89.15
2022-11-30T01:38:23.580Z,88.90
2022-11-30T01:39:27.489Z,89.12
2022-11-30T01:40:29.048Z,89.04
2022-11-30T01:41:33.178Z,89.05
2022-11-30T01:42:34.797Z,88.89
2022-11-30T01:43:42.514Z,88.88
2022-11-30T01:44:53.408Z,88.95
2022-11-30T01:45:56.244Z,88.91
2022-11-30T01:47:01.018Z,89.00
2022-11-30T01:48:05.408Z,89.31
2022-11-30T01:49:16.065Z,89.07
2022-11-30T01:50:21.716Z,89.19
2022-11-30T01:51:23.439Z,88.97
2022-11-30T01:52:29.867Z,89.44
2022-11-30T01:53:31.364Z,89.11
2022-11-30T01:54:39.782Z,89.21
2022-11-30T01:55:44.842Z,89.11
2022-11-30T01:56:51.680Z,88.87
2022-11-30T01:57:57.934Z,89.23
2022-11-30T01:59:01.217Z,89.04
2022-11-30T02:00:07.735Z,89.03
2022-11-30T02:01:13.818Z,89.05
2022-11-30T02:02:16.605Z,89.14
2022-11-30T02:03:27.267Z,89.22
2022-11-30T02:04:31.591Z,89.30
2022-11-30T02:05:37.473Z,89.23
2022-11-30T02:06:39.492Z,89.28
2022-11-30T02:07:42.941Z,89.43
2022-11-30T02:08:44.765Z,89.29
2022-11-30T02:09:51.379Z,89.22
2022-11-30T02:10:55.626Z,89.24
2022-11-30T02:11:58.363Z,89.39
2022-11-30T02:13:20.296Z,89.32
2022-11-30T02:14:30.917Z,89.20
2022-11-30T02:15:43.946Z,89.48
2022-11-30T02:16:57.217Z,89.22
2022-11-30T02:18:09.306Z,89.24
2022-11-30T02:19:32.120Z,89.42
2022-11-30T02:21:05.729Z,89.31
2022-11-30T02:22:15.508Z,89.37
2022-11-30T02:23:55.859Z,89.37
2022-11-30T02:25:08.358Z,89.41
2022-11-30T02:26:25.280Z,89.51
2022-11-30T02:27:45.142Z,89.41
2022-11-30T02:29:04.839Z,89.53
2022-11-30T02:30:08.926Z,89.46
2022-11-30T02:31:17.744Z,89.62
2022-11-30T02:32:25.361Z,89.57
2022-11-30T02:33:32.860Z,89.64
2022-11-30T02:34:36.916Z,89.55
2022-11-30T02:35:51.554Z,89.60
2022-11-30T02:36:59.943Z,89.64
2022-11-30T02:38:04.133Z,89.67
2022-11-30T02:39:07.228Z,89.68
2022-11-30T02:40:10.938Z,89.72
2022-11-30T02:41:13.426Z,89.72
2022-11-30T02:42:15.360Z,89.82
2022-11-30T02:43:20.017Z,89.84
2022-11-30T02:44:24.316Z,89.66
2022-11-30T02:45:35.319Z,89.92
2022-11-30T02:46:46.985Z,89.61
2022-11-30T02:47:56.305Z,89.79
2022-11-30T02:49:06.132Z,89.79
2022-11-30T02:50:15.019Z,89.80
2022-11-30T02:51:20.008Z,89.60
2022-11-30T02:52:26.976Z,89.84
2022-11-30T02:53:29.954Z,89.84
2022-11-30T02:54:32.251Z,89.88
2022-11-30T02:55:34.936Z,90.10
2022-11-30T02:56:36.458Z,89.87
2022-11-30T02:57:38.921Z,89.91
2022-11-30T02:58:41.104Z,89.91
2022-11-30T02:59:45.149Z,89.97
2022-11-30T03:00:47.099Z,89.75
2022-11-30T03:01:49.663Z,89.92
2022-11-30T03:02:51.221Z,90.06
2022-11-30T03:03:53.734Z,89.98
2022-11-30T03:04:55.217Z,90.06
2022-11-30T03:05:57.794Z,89.99
2022-11-30T03:06:59.327Z,90.10
2022-11-30T03:08:01.868Z,90.12
2022-11-30T03:09:03.414Z,90.19
2022-11-30T03:10:07.852Z,90.24
2022-11-30T03:11:09.367Z,90.17
2022-11-30T03:12:12.233Z,90.38
2022-11-30T03:13:13.909Z,90.09
2022-11-30T03:14:16.389Z,90.35
2022-11-30T03:15:19.231Z,90.13
2022-11-30T03:16:21.760Z,90.24
2022-11-30T03:17:23.384Z,90.27
2022-11-30T03:18:25.964Z,90.11
2022-11-30T03:19:27.479Z,90.09
2022-11-30T03:20:29.954Z,90.38
2022-11-30T03:21:31.520Z,90.25
2022-11-30T03:22:34.013Z,90.30
2022-11-30T03:23:35.830Z,90.30
2022-11-30T03:24:38.351Z,90.22
2022-11-30T03:25:39.894Z,90.19
2022-11-30T03:26:42.483Z,90.19
2022-11-30T03:27:44.010Z,90.33
2022-11-30T03:28:46.672Z,90.17
2022-11-30T03:29:48.425Z,90.10
2022-11-30T03:30:52.354Z,90.35
2022-11-30T03:31:54.435Z,90.32
2022-11-30T03:33:06.757Z,90.30
2022-11-30T03:34:08.322Z,90.26
2022-11-30T03:35:10.981Z,90.31
2022-11-30T03:36:13.082Z,90.24
2022-11-30T03:37:15.604Z,90.23
2022-11-30T03:38:17.259Z,90.11
2022-11-30T03:39:20.062Z,90.28
2022-11-30T03:40:21.631Z,90.12
2022-11-30T03:41:24.187Z,90.53
2022-11-30T03:42:25.741Z,90.15
2022-11-30T03:43:28.587Z,89.89
2022-11-30T03:44:30.198Z,90.28
2022-11-30T03:45:32.674Z,90.24
2022-11-30T03:46:35.659Z,90.21
2022-11-30T03:47:38.313Z,90.29
2022-11-30T03:48:41.260Z,90.34
2022-11-30T03:49:43.876Z,90.23
2022-11-30T03:50:49.586Z,90.13
2022-11-30T03:51:52.066Z,90.31
2022-11-30T03:52:53.598Z,90.36
2022-11-30T03:53:56.216Z,90.34
2022-11-30T03:54:57.704Z,90.38
2022-11-30T03:56:01.969Z,90.17
2022-11-30T03:57:03.629Z,90.49
2022-11-30T03:58:06.114Z,90.30
2022-11-30T03:59:08.757Z,90.41
2022-11-30T04:00:11.562Z,90.36
2022-11-30T04:01:17.591Z,90.24
2022-11-30T04:02:20.828Z,90.25
2022-11-30T04:03:23.623Z,90.35
2022-11-30T04:04:25.234Z,90.32
2022-11-30T04:05:27.725Z,90.26
2022-11-30T04:06:29.272Z,90.40
2022-11-30T04:07:31.900Z,90.24
2022-11-30T04:08:34.223Z,90.02
2022-11-30T04:09:36.687Z,89.90
2022-11-30T04:10:38.765Z,90.22
2022-11-30T04:11:41.283Z,90.10
2022-11-30T04:12:42.791Z,90.26
2022-11-30T04:13:45.436Z,90.20
2022-11-30T04:14:49.813Z,90.36
2022-11-30T04:15:54.021Z,90.13
2022-11-30T04:16:55.703Z,90.26
2022-11-30T04:17:59.566Z,90.04
2022-11-30T04:19:02.345Z,90.27
2022-11-30T04:20:04.837Z,90.24
2022-11-30T04:21:08.182Z,90.11
2022-11-30T04:22:09.715Z,90.25
2022-11-30T04:23:13.274Z,90.03
2022-11-30T04:24:14.817Z,90.22
2022-11-30T04:25:17.612Z,90.30
2022-11-30T04:26:19.136Z,90.06
2022-11-30T04:27:21.621Z,90.19
2022-11-30T04:28:23.584Z,90.22
2022-11-30T04:29:26.112Z,90.32
2022-11-30T04:30:28.245Z,90.37
2022-11-30T04:31:30.813Z,90.22
2022-11-30T04:32:32.369Z,90.22
2022-11-30T04:33:36.449Z,90.23
2022-11-30T04:34:37.939Z,90.26
2022-11-30T04:35:42.588Z,90.14
2022-11-30T04:36:44.121Z,90.25
2022-11-30T04:37:46.599Z,90.04
2022-11-30T04:38:48.302Z,89.98
2022-11-30T04:39:50.792Z,90.09
2022-11-30T04:40:52.644Z,90.15
2022-11-30T04:41:55.404Z,90.12
2022-11-30T04:42:56.951Z,90.08
2022-11-30T04:43:59.419Z,89.75
2022-11-30T04:45:00.918Z,90.02
2022-11-30T04:46:03.523Z,89.90
2022-11-30T04:47:05.029Z,89.96
2022-11-30T04:48:08.513Z,89.98
2022-11-30T04:49:11.399Z,89.90
2022-11-30T04:50:13.994Z,89.94
2022-11-30T04:51:15.555Z,89.94
2022-11-30T04:52:18.146Z,89.99
2022-11-30T04:53:19.640Z,90.02
2022-11-30T04:54:23.247Z,89.97
2022-11-30T04:55:24.811Z,89.96
2022-11-30T04:56:27.298Z,89.69
2022-11-30T04:57:28.821Z,89.85
2022-11-30T04:58:31.341Z,89.85
2022-11-30T04:59:32.901Z,89.78
2022-11-30T05:00:36.615Z,89.76
2022-11-30T05:01:38.220Z,89.93
2022-11-30T05:02:40.736Z,90.09
2022-11-30T05:03:46.552Z,89.77
2022-11-30T05:04:51.051Z,89.76
2022-11-30T05:05:52.827Z,89.63
2022-11-30T05:06:55.307Z,89.78
2022-11-30T05:07:58.825Z,89.87
2022-11-30T05:09:01.703Z,89.79
2022-11-30T05:10:05.325Z,89.75
2022-11-30T05:11:07.874Z,89.95
2022-11-30T05:12:09.467Z,89.71
2022-11-30T05:13:11.973Z,89.62
2022-11-30T05:14:13.592Z,89.55
2022-11-30T05:15:16.199Z,89.57
2022-11-30T05:16:17.736Z,89.49
2022-11-30T05:17:20.287Z,89.73
2022-11-30T05:18:22.163Z,89.59
2022-11-30T05:19:24.697Z,89.58
2022-11-30T05:20:27.607Z,89.58
2022-11-30T05:21:30.525Z,89.35
2022-11-30T05:22:34.843Z,89.09
2022-11-30T05:23:37.351Z,89.24
2022-11-30T05:24:38.949Z,89.31
2022-11-30T05:25:41.434Z,89.24
2022-11-30T05:26:42.989Z,88.97
2022-11-30T05:27:45.501Z,89.13
2022-11-30T05:28:47.221Z,89.03
2022-11-30T05:29:49.697Z,88.65
2022-11-30T05:30:51.245Z,88.77
2022-11-30T05:31:53.780Z,88.73
2022-11-30T05:32:55.314Z,88.59
2022-11-30T05:33:57.951Z,88.41
2022-11-30T05:34:59.759Z,88.55
2022-11-30T05:36:10.152Z,88.18
2022-11-30T05:37:12.287Z,88.15
2022-11-30T05:38:14.846Z,88.20
2022-11-30T05:39:16.396Z,87.97
2022-11-30T05:40:19.109Z,88.02
2022-11-30T05:41:20.820Z,87.74
2022-11-30T05:42:28.121Z,87.94
2022-11-30T05:43:29.674Z,87.88
2022-11-30T05:44:32.163Z,87.72
2022-11-30T05:45:33.658Z,87.77
2022-11-30T05:46:40.789Z,87.59
2022-11-30T05:47:42.630Z,87.46
2022-11-30T05:48:45.119Z,87.30
2022-11-30T05:49:49.482Z,87.39
2022-11-30T05:50:51.928Z,87.26
2022-11-30T05:51:54.806Z,87.31
2022-11-30T05:52:57.755Z,86.85
2022-11-30T05:53:59.474Z,87.05
2022-11-30T05:55:02.002Z,86.98
2022-11-30T05:56:04.539Z,86.91
2022-11-30T05:57:07.045Z,86.94
2022-11-30T05:58:08.592Z,86.84
2022-11-30T05:59:11.636Z,86.82
2022-11-30T06:00:14.602Z,86.59
2022-11-30T06:01:19.957Z,86.77
2022-11-30T06:02:26.693Z,86.76
2022-11-30T06:03:32.117Z,86.76
2022-11-30T06:04:34.220Z,86.65
2022-11-30T06:05:37.199Z,86.71
2022-11-30T06:06:38.894Z,86.45
2022-11-30T06:07:42.786Z,86.30
2022-11-30T06:08:45.847Z,86.19
2022-11-30T06:09:48.498Z,86.20
2022-11-30T06:10:50.254Z,86.19
2022-11-30T06:11:53.007Z,86.10
2022-11-30T06:12:54.505Z,86.35
2022-11-30T06:13:57.271Z,86.12
2022-11-30T06:14:58.782Z,86.19
2022-11-30T06:16:01.638Z,86.10
2022-11-30T06:17:03.406Z,85.95
2022-11-30T06:18:07.165Z,85.83
2022-11-30T06:19:08.693Z,85.82
2022-11-30T06:20:12.028Z,86.07
2022-11-30T06:21:13.541Z,85.81
2022-11-30T06:22:16.043Z,85.75
2022-11-30T06:23:18.950Z,85.83
2022-11-30T06:24:21.460Z,85.60
2022-11-30T06:25:23.415Z,85.52
2022-11-30T06:26:26.136Z,85.63
2022-11-30T06:27:30.959Z,85.40
2022-11-30T06:28:33.889Z,85.36
2022-11-30T06:29:36.366Z,85.45
2022-11-30T06:30:38.205Z,85.55
2022-11-30T06:31:40.947Z,85.33
2022-11-30T06:32:44.751Z,85.36
2022-11-30T06:33:47.268Z,85.37
2022-11-30T06:34:49.076Z,85.55
2022-11-30T06:35:52.489Z,85.14
2022-11-30T06:37:01.336Z,85.01
2022-11-30T06:38:03.879Z,85.35
2022-11-30T06:39:08.765Z,85.27
2022-11-30T06:40:14.472Z,85.27
2022-11-30T06:41:16.038Z,85.21
2022-11-30T06:42:19.552Z,85.24
2022-11-30T06:43:22.127Z,85.35
2022-11-30T06:44:23.636Z,85.29
2022-11-30T06:45:26.244Z,85.23
2022-11-30T06:46:29.010Z,85.34
2022-11-30T06:47:30.557Z,85.23
2022-11-30T06:48:33.789Z,85.35
2022-11-30T06:49:35.320Z,85.18
2022-11-30T06:50:38.051Z,85.41
2022-11-30T06:51:39.637Z,85.42
2022-11-30T06:52:42.222Z,85.17
2022-11-30T06:53:44.397Z,85.18
2022-11-30T06:54:48.514Z,85.22
2022-11-30T06:55:51.330Z,85.08
2022-11-30T06:56:53.816Z,85.37
2022-11-30T06:57:56.335Z,85.27
2022-11-30T06:58:58.925Z,85.25
2022-11-30T07:00:00.471Z,85.01
2022-11-30T07:01:05.873Z,85.28
2022-11-30T07:02:13.075Z,85.75
2022-11-30T07:03:19.890Z,85.47
2022-11-30T07:04:21.672Z,85.36
2022-11-30T07:05:24.621Z,85.62
2022-11-30T07:06:26.310Z,85.44
2022-11-30T07:07:30.592Z,85.57
2022-11-30T07:08:33.500Z,85.46
2022-11-30T07:09:37.657Z,85.58
2022-11-30T07:10:42.892Z,85.60
2022-11-30T07:11:44.451Z,85.91
2022-11-30T07:12:47.214Z,85.71
2022-11-30T07:13:48.821Z,85.62
2022-11-30T07:14:52.693Z,85.55
2022-11-30T07:15:54.277Z,85.58
2022-11-30T07:16:56.741Z,85.72
2022-11-30T07:18:00.430Z,85.61
2022-11-30T07:19:02.920Z,85.59
2022-11-30T07:20:05.630Z,85.54
2022-11-30T07:21:08.415Z,85.71
2022-11-30T07:22:09.946Z,85.71
2022-11-30T07:23:30.026Z,85.48
2022-11-30T07:24:50.701Z,85.55
2022-11-30T07:26:07.594Z,85.49
2022-11-30T07:27:10.196Z,85.67
2022-11-30T07:28:11.700Z,85.82
2022-11-30T07:29:14.206Z,85.74
2022-11-30T07:30:16.173Z,85.85
2022-11-30T07:31:21.438Z,85.88
2022-11-30T07:32:23.146Z,85.86
2022-11-30T07:33:25.844Z,86.13
2022-11-30T07:34:28.769Z,86.11
2022-11-30T07:35:30.340Z,85.98
2022-11-30T07:36:32.826Z,86.08
2022-11-30T07:37:34.369Z,85.95
2022-11-30T07:38:37.059Z,86.05
2022-11-30T07:39:39.582Z,85.97
2022-11-30T07:40:41.373Z,86.06
2022-11-30T07:41:45.380Z,86.06
2022-11-30T07:42:47.861Z,85.87
2022-11-30T07:43:50.385Z,86.12
2022-11-30T07:44:57.055Z,86.10
2022-11-30T07:46:02.133Z,86.12
2022-11-30T07:47:04.644Z,85.87
2022-11-30T07:48:06.435Z,85.95
2022-11-30T07:49:10.936Z,85.92
2022-11-30T07:50:12.474Z,86.01
2022-11-30T07:51:16.947Z,86.01
2022-11-30T07:52:18.482Z,85.94
2022-11-30T07:53:20.968Z,86.13
2022-11-30T07:54:22.752Z,85.78
2022-11-30T07:55:25.250Z,86.18
2022-11-30T07:56:29.040Z,86.12
2022-11-30T07:57:32.025Z,86.12
2022-11-30T07:58:35.203Z,86.28
2022-11-30T07:59:36.711Z,86.19
2022-11-30T08:00:39.739Z,86.16
2022-11-30T08:01:42.446Z,86.43
2022-11-30T08:02:44.180Z,86.28
2022-11-30T08:03:46.922Z,85.91
2022-11-30T08:04:50.944Z,86.21
2022-11-30T08:05:52.786Z,86.17
2022-11-30T08:06:55.363Z,86.45
2022-11-30T08:07:57.100Z,86.41
2022-11-30T08:09:02.175Z,86.24
2022-11-30T08:10:04.826Z,85.99
2022-11-30T08:11:09.078Z,86.36
2022-11-30T08:12:11.619Z,86.06
2022-11-30T08:13:14.650Z,86.08
2022-11-30T08:14:17.420Z,86.07
2022-11-30T08:15:20.777Z,86.04
2022-11-30T08:16:25.391Z,86.04
2022-11-30T08:17:26.924Z,86.09
2022-11-30T08:18:29.494Z,86.26
2022-11-30T08:19:31.982Z,86.12
2022-11-30T08:20:33.500Z,85.98
2022-11-30T08:21:37.915Z,86.10
2022-11-30T08:22:40.542Z,86.20
2022-11-30T08:23:43.987Z,86.12
2022-11-30T08:24:46.656Z,85.95
2022-11-30T08:25:48.211Z,85.90
2022-11-30T08:26:51.935Z,86.01
2022-11-30T08:27:53.463Z,85.89
2022-11-30T08:28:58.887Z,85.88
2022-11-30T08:30:00.415Z,85.77
2022-11-30T08:31:06.449Z,85.71
2022-11-30T08:32:09.063Z,85.70
2022-11-30T08:33:14.465Z,85.70
2022-11-30T08:34:17.056Z,85.71
2022-11-30T08:35:18.608Z,85.72
2022-11-30T08:36:22.985Z,85.80
2022-11-30T08:37:25.835Z,85.61
2022-11-30T08:38:28.199Z,85.58
2022-11-30T08:39:31.715Z,85.43
2022-11-30T08:40:33.288Z,85.71
2022-11-30T08:41:36.638Z,85.72
2022-11-30T08:42:39.109Z,85.62
2022-11-30T08:43:40.887Z,85.57
2022-11-30T08:44:44.710Z,85.78
2022-11-30T08:45:46.270Z,85.51
2022-11-30T08:46:51.941Z,85.53
2022-11-30T08:47:55.344Z,85.87
2022-11-30T08:49:13.007Z,85.73
2022-11-30T08:50:19.700Z,85.74
2022-11-30T08:51:22.611Z,85.59
2022-11-30T08:52:25.467Z,85.70
2022-11-30T08:53:27.064Z,85.60
2022-11-30T08:54:29.606Z,85.49
2022-11-30T08:55:32.145Z,85.73
2022-11-30T08:56:34.613Z,85.67
2022-11-30T08:57:37.068Z,85.76
2022-11-30T08:58:41.354Z,85.75
2022-11-30T08:59:44.451Z,85.60
2022-11-30T09:00:46.928Z,85.67
2022-11-30T09:01:48.439Z,85.79
2022-11-30T09:02:51.304Z,85.93
2022-11-30T09:03:55.642Z,85.68
2022-11-30T09:04:58.176Z,85.84
2022-11-30T09:06:04.222Z,85.71
2022-11-30T09:07:06.700Z,85.63
2022-11-30T09:08:09.470Z,85.53
2022-11-30T09:09:11.019Z,85.65
2022-11-30T09:10:16.873Z,85.63
2022-11-30T09:11:19.968Z,85.65
2022-11-30T09:12:22.435Z,85.63
2022-11-30T09:13:24.492Z,85.64
2022-11-30T09:14:27.323Z,85.56
2022-11-30T09:15:31.414Z,85.79
2022-11-30T09:16:33.018Z,85.51
2022-11-30T09:17:35.963Z,85.57
2022-11-30T09:18:38.966Z,85.59
2022-11-30T09:19:41.405Z,85.63
2022-11-30T09:20:42.876Z,85.72
2022-11-30T09:21:51.189Z,85.79
2022-11-30T09:22:54.690Z,85.75
2022-11-30T09:23:57.290Z,85.75
2022-11-30T09:24:59.780Z,85.88
2022-11-30T09:26:03.065Z,85.68
2022-11-30T09:27:05.532Z,85.61
2022-11-30T09:28:12.162Z,85.53
2022-11-30T09:29:14.986Z,85.73
2022-11-30T09:30:17.796Z,85.79
2022-11-30T09:31:23.302Z,85.79
2022-11-30T09:32:25.827Z,86.09
2022-11-30T09:33:27.403Z,85.94
2022-11-30T09:34:29.892Z,85.62
2022-11-30T09:35:32.350Z,85.79
2022-11-30T09:36:36.466Z,85.75
2022-11-30T09:37:40.165Z,85.69
2022-11-30T09:38:42.373Z,85.88
2022-11-30T09:39:44.834Z,85.77
2022-11-30T09:40:47.621Z,85.85
2022-11-30T09:42:27.671Z,85.92
2022-11-30T09:43:41.949Z,85.47
2022-11-30T09:44:52.175Z,85.54
2022-11-30T09:45:58.472Z,85.77
2022-11-30T09:47:10.661Z,85.51
2022-11-30T09:48:29.941Z,85.63
2022-11-30T09:49:36.882Z,85.66
2022-11-30T09:50:43.075Z,85.71
2022-11-30T09:51:47.979Z,86.07
2022-11-30T09:52:52.299Z,85.69
2022-11-30T09:53:58.720Z,85.75
2022-11-30T09:55:06.542Z,85.58
2022-11-30T09:56:19.852Z,85.76
2022-11-30T09:57:28.224Z,85.83
2022-11-30T09:58:48.083Z,85.66
2022-11-30T09:59:55.828Z,85.46
2022-11-30T10:01:01.247Z,85.73
2022-11-30T10:02:18.077Z,85.57
2022-11-30T10:03:23.977Z,85.60
2022-11-30T10:04:28.466Z,85.74
2022-11-30T10:05:46.486Z,85.65
2022-11-30T10:07:00.339Z,85.50
2022-11-30T10:08:20.442Z,85.58
2022-11-30T10:09:34.093Z,85.47
2022-11-30T10:10:43.121Z,85.72
2022-11-30T10:11:54.636Z,85.40
2022-11-30T10:13:07.588Z,85.47
2022-11-30T10:14:32.128Z,85.45
2022-11-30T10:15:46.570Z,85.46
2022-11-30T10:16:58.381Z,85.41
2022-11-30T10:18:15.801Z,85.39
2022-11-30T10:19:35.111Z,85.42
2022-11-30T10:21:03.723Z,85.75
2022-11-30T10:22:15.604Z,85.59
2022-11-30T10:23:36.909Z,85.60
2022-11-30T10:24:57.761Z,85.39
2022-11-30T10:26:07.218Z,85.67
2022-11-30T10:27:17.558Z,85.63
2022-11-30T10:28:48.618Z,85.31
2022-11-30T10:29:52.104Z,85.87
2022-11-30T10:30:55.031Z,85.55
2022-11-30T10:32:00.740Z,85.40
2022-11-30T10:33:15.330Z,85.46
2022-11-30T10:34:22.256Z,85.58
2022-11-30T10:35:35.276Z,85.62
2022-11-30T10:36:42.967Z,85.75
2022-11-30T10:37:47.605Z,85.41
2022-11-30T10:38:53.958Z,85.65
2022-11-30T10:40:02.436Z,85.65
2022-11-30T10:41:11.272Z,85.32
2022-11-30T10:42:20.772Z,85.69
2022-11-30T10:43:30.024Z,85.51
2022-11-30T10:44:35.893Z,85.56
2022-11-30T10:45:44.386Z,85.44
2022-11-30T10:46:56.133Z,85.65
2022-11-30T10:48:04.736Z,85.46
2022-11-30T10:49:15.398Z,85.41
2022-11-30T10:50:18.688Z,85.74
2022-11-30T10:51:21.553Z,85.62
2022-11-30T10:52:27.888Z,85.41
2022-11-30T10:53:30.478Z,85.45
2022-11-30T10:54:34.174Z,85.53
2022-11-30T10:55:41.509Z,85.63
2022-11-30T10:56:44.175Z,85.59
2022-11-30T10:57:49.445Z,85.50
2022-11-30T10:58:57.717Z,85.29
2022-11-30T11:00:05.113Z,85.25
2022-11-30T11:01:09.933Z,85.43
2022-11-30T11:02:42.378Z,85.50
2022-11-30T11:03:45.145Z,85.48
2022-11-30T11:04:49.208Z,85.24
2022-11-30T11:08:26.216Z,85.34
2022-11-30T11:09:37.481Z,85.27
2022-11-30T11:10:46.252Z,85.41
2022-11-30T11:11:54.799Z,85.23
2022-11-30T11:12:57.277Z,85.15
2022-11-30T11:14:16.090Z,85.19
2022-11-30T11:15:22.130Z,85.11
2022-11-30T11:16:24.760Z,85.29
2022-11-30T11:17:28.900Z,85.14
2022-11-30T11:18:32.751Z,85.33
2022-11-30T11:19:38.513Z,85.28
2022-11-30T11:20:43.269Z,85.29
2022-11-30T11:21:49.477Z,85.44
2022-11-30T11:22:52.013Z,85.38
2022-11-30T11:23:56.689Z,85.33
2022-11-30T11:25:12.130Z,85.41
2022-11-30T11:26:18.593Z,85.22
2022-11-30T11:27:26.539Z,85.45
2022-11-30T11:28:30.175Z,85.21
2022-11-30T11:29:35.352Z,85.50
2022-11-30T11:30:38.382Z,85.33
2022-11-30T11:31:44.113Z,85.30
2022-11-30T11:32:59.091Z,85.33
2022-11-30T11:34:01.722Z,85.56
2022-11-30T11:35:04.196Z,84.96
2022-11-30T11:36:16.379Z,85.05
2022-11-30T11:37:21.720Z,84.99
2022-11-30T11:38:27.285Z,85.11
2022-11-30T11:39:28.828Z,85.22
2022-11-30T11:40:31.855Z,85.11
2022-11-30T11:41:37.333Z,85.15
2022-11-30T11:42:47.051Z,84.94
2022-11-30T11:44:05.129Z,84.96
2022-11-30T11:45:18.356Z,84.84
2022-11-30T11:46:20.908Z,85.05
2022-11-30T11:47:26.394Z,84.90
2022-11-30T11:48:33.560Z,84.94
2022-11-30T11:49:37.871Z,84.74
2022-11-30T11:52:15.193Z,84.73
2022-11-30T11:53:24.825Z,84.88
2022-11-30T11:54:32.414Z,84.71
2022-11-30T11:55:35.862Z,84.85
2022-11-30T11:56:38.758Z,84.66
2022-11-30T11:57:45.508Z,84.84
2022-11-30T11:58:51.933Z,84.63
2022-11-30T12:00:01.832Z,84.61
2022-11-30T12:01:38.616Z,84.43
2022-11-30T12:02:40.029Z,84.64
2022-11-30T12:03:51.386Z,84.60
2022-11-30T12:04:57.609Z,84.49
2022-11-30T12:06:06.078Z,84.48
2022-11-30T12:07:20.215Z,84.52
2022-11-30T12:08:29.057Z,84.30
2022-11-30T12:09:37.421Z,84.47
2022-11-30T12:10:51.709Z,84.29
2022-11-30T12:11:55.990Z,84.22
2022-11-30T12:12:59.180Z,84.43
2022-11-30T12:14:09.225Z,84.19
2022-11-30T12:15:12.333Z,84.52
2022-11-30T12:16:33.887Z,84.30
2022-11-30T12:17:49.341Z,84.17
2022-11-30T12:18:58.922Z,84.23
2022-11-30T12:20:14.260Z,84.14
2022-11-30T12:21:22.026Z,84.14
2022-11-30T12:22:43.429Z,84.06
2022-11-30T12:24:11.019Z,83.85
2022-11-30T12:25:26.401Z,83.99
2022-11-30T12:26:38.084Z,83.83
2022-11-30T12:27:53.583Z,83.90
2022-11-30T12:29:25.079Z,83.74
2022-11-30T12:30:34.813Z,83.65
2022-11-30T12:31:44.770Z,83.61
2022-11-30T12:33:06.495Z,83.67
2022-11-30T12:34:17.077Z,83.58
2022-11-30T12:35:30.209Z,83.42
2022-11-30T12:36:50.829Z,83.44
2022-11-30T12:38:02.820Z,83.51
2022-11-30T12:39:10.312Z,83.27
2022-11-30T12:40:26.159Z,83.24
2022-11-30T12:41:39.048Z,83.65
2022-11-30T12:42:47.314Z,83.58
2022-11-30T12:43:56.937Z,83.57
2022-11-30T12:45:06.974Z,83.52
2022-11-30T12:46:15.545Z,83.21
2022-11-30T12:47:31.119Z,83.43
2022-11-30T12:48:41.617Z,83.70
2022-11-30T12:49:59.022Z,83.58
2022-11-30T12:51:12.763Z,83.53
2022-11-30T12:52:28.745Z,83.67
2022-11-30T12:53:39.191Z,83.61
2022-11-30T12:54:48.613Z,83.52
2022-11-30T12:56:01.390Z,83.58
2022-11-30T12:57:13.927Z,83.73
2022-11-30T12:58:23.016Z,83.58
2022-11-30T12:59:33.208Z,83.58
2022-11-30T13:00:52.243Z,83.77
2022-11-30T13:02:18.484Z,83.63
2022-11-30T13:03:42.971Z,83.87
2022-11-30T13:04:56.357Z,83.93
2022-11-30T13:06:05.725Z,83.81
2022-11-30T13:07:21.432Z,84.08
2022-11-30T13:08:28.193Z,84.13
2022-11-30T13:09:36.764Z,84.06
2022-11-30T13:10:42.967Z,84.10
2022-11-30T13:11:53.701Z,84.04
2022-11-30T13:12:58.066Z,84.02
2022-11-30T13:14:01.795Z,84.17
2022-11-30T13:15:16.235Z,84.25
2022-11-30T13:16:21.496Z,84.14
2022-11-30T13:17:25.034Z,84.32
2022-11-30T13:18:27.790Z,84.33
2022-11-30T13:19:45.362Z,84.49
2022-11-30T13:20:53.911Z,84.24
2022-11-30T13:22:00.948Z,84.31
2022-11-30T13:23:09.143Z,84.04
2022-11-30T13:24:17.445Z,84.00
2022-11-30T13:26:06.403Z,84.10
2022-11-30T13:26:58.968Z,84.21
2022-11-30T13:28:08.850Z,84.06
2022-11-30T13:29:32.352Z,84.23
2022-11-30T13:30:41.733Z,84.44
2022-11-30T13:31:49.353Z,84.30
2022-11-30T13:32:59.460Z,84.31
2022-11-30T13:34:02.137Z,84.14
2022-11-30T13:35:42.420Z,84.14
2022-11-30T13:36:46.527Z,84.35
2022-11-30T13:38:20.696Z,84.42
2022-11-30T13:39:25.793Z,84.25
2022-11-30T13:40:29.836Z,84.18
2022-11-30T13:41:32.831Z,84.40
2022-11-30T13:42:39.475Z,83.94
2022-11-30T13:43:46.082Z,84.28
2022-11-30T13:44:48.081Z,84.19
2022-11-30T13:46:04.476Z,84.15
2022-11-30T13:47:18.978Z,84.13
2022-11-30T13:48:33.917Z,84.16
2022-11-30T13:49:37.828Z,84.27
2022-11-30T13:50:40.019Z,84.19
2022-11-30T13:51:42.811Z,84.15
2022-11-30T13:53:33.962Z,84.02
2022-11-30T13:54:41.869Z,83.97
2022-11-30T13:56:05.315Z,83.98
2022-11-30T13:57:44.307Z,83.97
2022-11-30T13:59:34.451Z,83.70
2022-11-30T14:01:02.053Z,83.88
2022-11-30T14:02:58.041Z,83.74
2022-11-30T14:04:28.619Z,83.55
2022-11-30T14:05:40.218Z,83.54
2022-11-30T14:06:49.144Z,83.72
2022-11-30T14:08:32.041Z,83.82
2022-11-30T14:09:59.588Z,83.73
2022-11-30T14:11:39.139Z,83.84
2022-11-30T14:12:58.507Z,83.85